createdAt,value
2023-03-22T00:00:22.656Z,954.69
2023-03-22T00:01:22.625Z,954.69
2023-03-22T00:02:22.786Z,954.67
2023-03-22T00:03:22.808Z,954.89
2023-03-22T00:04:22.707Z,954.86
2023-03-22T00:05:22.806Z,954.90
2023-03-22T00:06:22.913Z,954.84
2023-03-22T00:07:22.842Z,954.90
2023-03-22T00:08:22.915Z,954.84
2023-03-22T00:09:22.918Z,954.85
2023-03-22T00:10:23.287Z,954.84
2023-03-22T00:11:23.041Z,954.88
2023-03-22T00:12:23.050Z,954.84
2023-03-22T00:13:22.885Z,955.00
2023-03-22T00:14:23.037Z,954.93
2023-03-22T00:15:23.334Z,954.93
2023-03-22T00:16:23.306Z,955.00
2023-03-22T00:17:23.095Z,954.99
2023-03-22T00:18:23.211Z,954.82
2023-03-22T00:19:23.145Z,954.87
2023-03-22T00:20:23.549Z,954.90
2023-03-22T00:21:23.262Z,954.84
2023-03-22T00:22:23.173Z,954.70
2023-03-22T00:23:23.298Z,954.78
2023-03-22T00:24:23.378Z,954.78
2023-03-22T00:25:23.768Z,954.80
2023-03-22T00:26:23.241Z,954.68
2023-03-22T00:27:23.356Z,954.63
2023-03-22T00:28:23.369Z,954.62
2023-03-22T00:29:23.314Z,954.64
2023-03-22T00:30:23.616Z,954.70
2023-03-22T00:31:23.404Z,954.70
2023-03-22T00:32:23.386Z,954.71
2023-03-22T00:33:23.447Z,954.77
2023-03-22T00:34:23.543Z,954.80
2023-03-22T00:35:23.650Z,954.79
2023-03-22T00:36:23.589Z,954.81
2023-03-22T00:37:23.647Z,954.94
2023-03-22T00:38:35.934Z,954.92
2023-03-22T00:39:23.646Z,954.86
2023-03-22T00:40:23.559Z,954.93
2023-03-22T00:41:23.676Z,954.99
2023-03-22T00:42:23.573Z,954.98
2023-03-22T00:43:23.739Z,954.93
2023-03-22T00:44:23.716Z,954.98
2023-03-22T00:45:24.052Z,954.98
2023-03-22T00:46:23.717Z,954.93
2023-03-22T00:47:23.749Z,954.93
2023-03-22T00:48:23.751Z,954.94
2023-03-22T00:49:23.707Z,954.97
2023-03-22T00:50:23.678Z,954.98
2023-03-22T00:51:23.762Z,954.96
2023-03-22T00:52:23.630Z,955.03
2023-03-22T00:53:23.660Z,954.93
2023-03-22T00:54:23.668Z,955.04
2023-03-22T00:55:23.689Z,955.12
2023-03-22T00:56:23.672Z,955.12
2023-03-22T00:57:23.702Z,955.07
2023-03-22T00:58:23.821Z,955.07
2023-03-22T00:59:23.701Z,955.02
2023-03-22T01:00:23.677Z,955.10
2023-03-22T01:01:23.713Z,955.03
2023-03-22T01:02:23.635Z,954.96
2023-03-22T01:03:23.802Z,955.03
2023-03-22T01:04:23.852Z,955.01
2023-03-22T01:05:24.015Z,954.98
2023-03-22T01:06:23.722Z,954.93
2023-03-22T01:07:23.716Z,954.94
2023-03-22T01:08:23.720Z,954.95
2023-03-22T01:09:23.735Z,954.92
2023-03-22T01:10:24.108Z,954.98
2023-03-22T01:11:23.699Z,954.96
2023-03-22T01:12:23.668Z,954.89
2023-03-22T01:13:23.848Z,954.84
2023-03-22T01:14:23.728Z,954.86
2023-03-22T01:15:24.295Z,954.85
2023-03-22T01:16:23.775Z,954.76
2023-03-22T01:17:23.782Z,954.77
2023-03-22T01:18:23.795Z,954.66
2023-03-22T01:19:23.686Z,954.73
2023-03-22T01:20:24.116Z,954.74
2023-03-22T01:21:23.744Z,954.76
2023-03-22T01:22:23.687Z,954.64
2023-03-22T01:23:23.690Z,954.76
2023-03-22T01:24:23.713Z,954.83
2023-03-22T01:25:23.736Z,954.72
2023-03-22T01:26:23.797Z,954.79
2023-03-22T01:27:23.696Z,954.84
2023-03-22T01:28:26.458Z,954.78
2023-03-22T01:29:23.823Z,954.79
2023-03-22T01:30:24.061Z,954.58
2023-03-22T01:31:23.780Z,954.66
2023-03-22T01:32:23.781Z,954.60
2023-03-22T01:33:23.760Z,954.47
2023-03-22T01:34:23.760Z,954.65
2023-03-22T01:35:24.090Z,954.62
2023-03-22T01:36:23.863Z,954.67
2023-03-22T01:37:23.731Z,954.60
2023-03-22T01:38:23.784Z,954.69
2023-03-22T01:39:23.771Z,954.61
2023-03-22T01:40:24.145Z,954.61
2023-03-22T01:41:23.860Z,954.60
2023-03-22T01:42:23.736Z,954.59
2023-03-22T01:43:23.749Z,954.58
2023-03-22T01:44:23.844Z,954.47
2023-03-22T01:45:24.133Z,954.56
2023-03-22T01:46:23.817Z,954.53
2023-03-22T01:47:23.850Z,954.40
2023-03-22T01:48:23.911Z,954.52
2023-03-22T01:49:23.883Z,954.57
2023-03-22T01:50:23.972Z,954.65
2023-03-22T01:51:23.805Z,954.56
2023-03-22T01:52:23.810Z,954.72
2023-03-22T01:53:23.777Z,954.69
2023-03-22T01:54:23.888Z,954.71
2023-03-22T01:55:23.801Z,954.72
2023-03-22T01:56:23.803Z,954.73
2023-03-22T01:57:23.925Z,954.61
2023-03-22T01:58:23.915Z,954.66
2023-03-22T01:59:23.890Z,954.63
2023-03-22T02:00:23.942Z,954.52
2023-03-22T02:01:23.993Z,954.65
2023-03-22T02:02:23.937Z,954.73
2023-03-22T02:03:23.852Z,954.77
2023-03-22T02:04:29.528Z,954.83
2023-03-22T02:05:23.926Z,954.86
2023-03-22T02:06:23.909Z,954.78
2023-03-22T02:07:23.773Z,954.72
2023-03-22T02:08:23.779Z,954.76
2023-03-22T02:09:23.770Z,954.62
2023-03-22T02:10:24.107Z,954.67
2023-03-22T02:11:23.836Z,954.62
2023-03-22T02:12:23.807Z,954.71
2023-03-22T02:13:23.857Z,954.84
2023-03-22T02:14:24.548Z,954.79
2023-03-22T02:15:24.082Z,954.84
2023-03-22T02:16:23.936Z,954.68
2023-03-22T02:17:24.004Z,954.67
2023-03-22T02:18:23.966Z,954.59
2023-03-22T02:19:23.836Z,954.68
2023-03-22T02:20:24.307Z,954.75
2023-03-22T02:21:23.915Z,954.78
2023-03-22T02:22:23.926Z,954.83
2023-03-22T02:23:23.938Z,954.97
2023-03-22T02:24:23.949Z,954.88
2023-03-22T02:25:24.331Z,954.82
2023-03-22T02:26:23.982Z,954.82
2023-03-22T02:27:23.996Z,954.89
2023-03-22T02:28:23.897Z,954.79
2023-03-22T02:29:23.844Z,954.83
2023-03-22T02:30:24.034Z,954.86
2023-03-22T02:31:23.915Z,954.82
2023-03-22T02:32:23.842Z,955.03
2023-03-22T02:33:23.953Z,955.06
2023-03-22T02:34:23.916Z,955.12
2023-03-22T02:35:24.022Z,955.09
2023-03-22T02:36:23.934Z,955.21
2023-03-22T02:37:24.011Z,955.22
2023-03-22T02:38:23.987Z,955.14
2023-03-22T02:39:23.978Z,955.19
2023-03-22T02:40:24.185Z,955.05
2023-03-22T02:41:24.045Z,955.10
2023-03-22T02:42:24.075Z,955.13
2023-03-22T02:43:24.106Z,955.10
2023-03-22T02:44:24.175Z,955.09
2023-03-22T02:45:24.492Z,955.06
2023-03-22T02:46:24.165Z,955.03
2023-03-22T02:47:24.127Z,955.13
2023-03-22T02:48:24.178Z,955.04
2023-03-22T02:49:24.281Z,955.07
2023-03-22T02:50:24.456Z,955.02
2023-03-22T02:51:24.184Z,955.03
2023-03-22T02:52:24.281Z,954.93
2023-03-22T02:53:24.362Z,954.90
2023-03-22T02:54:24.383Z,954.86
2023-03-22T02:55:24.450Z,954.78
2023-03-22T02:56:24.463Z,954.82
2023-03-22T02:57:24.360Z,954.73
2023-03-22T02:58:24.473Z,954.74
2023-03-22T02:59:24.342Z,954.76
2023-03-22T03:00:24.403Z,954.81
2023-03-22T03:01:24.598Z,954.78
2023-03-22T03:02:24.552Z,954.89
2023-03-22T03:03:24.526Z,954.87
2023-03-22T03:04:24.511Z,954.82
2023-03-22T03:05:24.682Z,954.81
2023-03-22T03:06:24.738Z,954.84
2023-03-22T03:07:24.708Z,954.80
2023-03-22T03:08:24.663Z,954.75
2023-03-22T03:09:24.728Z,954.81
2023-03-22T03:10:25.188Z,954.69
2023-03-22T03:11:24.788Z,954.68
2023-03-22T03:12:24.705Z,954.76
2023-03-22T03:13:24.784Z,954.70
2023-03-22T03:14:24.812Z,954.75
2023-03-22T03:15:25.252Z,954.72
2023-03-22T03:16:25.092Z,954.70
2023-03-22T03:17:24.957Z,954.72
2023-03-22T03:18:24.953Z,954.75
2023-03-22T03:19:24.843Z,954.61
2023-03-22T03:20:25.228Z,954.67
2023-03-22T03:21:25.042Z,954.69
2023-03-22T03:22:25.014Z,954.64
2023-03-22T03:23:24.985Z,954.65
2023-03-22T03:24:25.024Z,954.59
2023-03-22T03:25:25.289Z,954.73
2023-03-22T03:26:25.167Z,954.74
2023-03-22T03:27:25.203Z,954.64
2023-03-22T03:28:25.257Z,954.68
2023-03-22T03:29:25.217Z,954.65
2023-03-22T03:30:25.382Z,954.69
2023-03-22T03:31:25.236Z,954.79
2023-03-22T03:32:25.237Z,954.72
2023-03-22T03:33:25.250Z,954.76
2023-03-22T03:34:25.374Z,954.77
2023-03-22T03:35:25.495Z,954.66
2023-03-22T03:36:25.342Z,954.57
2023-03-22T03:37:25.415Z,954.58
2023-03-22T03:38:25.437Z,954.62
2023-03-22T03:39:25.402Z,954.57
2023-03-22T03:40:25.699Z,954.47
2023-03-22T03:41:25.538Z,954.51
2023-03-22T03:42:25.554Z,954.50
2023-03-22T03:43:25.467Z,954.59
2023-03-22T03:44:25.452Z,954.55
2023-03-22T03:45:26.069Z,954.41
2023-03-22T03:46:25.684Z,954.46
2023-03-22T03:47:25.676Z,954.42
2023-03-22T03:48:25.751Z,954.44
2023-03-22T03:49:25.608Z,954.43
2023-03-22T03:50:25.948Z,954.57
2023-03-22T03:51:25.852Z,954.58
2023-03-22T03:52:25.716Z,954.59
2023-03-22T03:53:25.718Z,954.56
2023-03-22T03:54:25.739Z,954.56
2023-03-22T03:55:25.791Z,954.47
2023-03-22T03:56:25.931Z,954.61
2023-03-22T03:57:25.904Z,954.60
2023-03-22T03:58:25.857Z,954.60
2023-03-22T03:59:25.906Z,954.69
2023-03-22T04:00:26.162Z,954.73
2023-03-22T04:01:26.024Z,954.79
2023-03-22T04:02:26.000Z,954.72
2023-03-22T04:03:26.113Z,954.74
2023-03-22T04:04:26.168Z,954.70
2023-03-22T04:05:26.315Z,954.91
2023-03-22T04:06:26.142Z,954.86
2023-03-22T04:07:26.007Z,954.84
2023-03-22T04:08:26.114Z,954.81
2023-03-22T04:09:26.244Z,954.86
2023-03-22T04:10:26.429Z,954.84
2023-03-22T04:11:26.199Z,954.83
2023-03-22T04:12:26.308Z,954.84
2023-03-22T04:13:26.288Z,954.89
2023-03-22T04:14:26.233Z,954.88
2023-03-22T04:15:26.763Z,954.89
2023-03-22T04:16:26.344Z,954.79
2023-03-22T04:17:26.355Z,954.92
2023-03-22T04:18:26.330Z,954.83
2023-03-22T04:19:26.444Z,954.91
2023-03-22T04:20:26.492Z,954.89
2023-03-22T04:21:26.399Z,954.90
2023-03-22T04:22:26.590Z,954.93
2023-03-22T04:23:26.469Z,954.81
2023-03-22T04:24:26.476Z,954.81
2023-03-22T04:25:26.892Z,954.83
2023-03-22T04:26:26.945Z,954.68
2023-03-22T04:27:26.717Z,954.74
2023-03-22T04:28:26.629Z,954.68
2023-03-22T04:29:26.601Z,954.74
2023-03-22T04:30:26.814Z,954.82
2023-03-22T04:31:26.670Z,954.76
2023-03-22T04:32:26.654Z,954.88
2023-03-22T04:33:26.680Z,954.78
2023-03-22T04:34:26.713Z,954.78
2023-03-22T04:35:27.091Z,954.74
2023-03-22T04:36:26.881Z,954.90
2023-03-22T04:37:26.803Z,954.83
2023-03-22T04:38:26.863Z,954.69
2023-03-22T04:39:26.882Z,954.64
2023-03-22T04:40:27.219Z,954.62
2023-03-22T04:41:27.269Z,954.79
2023-03-22T04:42:27.001Z,954.78
2023-03-22T04:43:27.064Z,954.72
2023-03-22T04:44:26.977Z,954.65
2023-03-22T04:45:27.572Z,954.65
2023-03-22T04:46:27.059Z,954.66
2023-03-22T04:47:27.127Z,954.77
2023-03-22T04:48:27.189Z,954.68
2023-03-22T04:49:27.115Z,954.54
2023-03-22T04:50:27.238Z,954.54
2023-03-22T04:51:27.194Z,954.67
2023-03-22T04:52:27.255Z,954.65
2023-03-22T04:53:27.202Z,954.59
2023-03-22T04:54:27.233Z,954.74
2023-03-22T04:55:27.705Z,954.65
2023-03-22T12:32:36.636Z,941.67
2023-03-22T12:33:35.959Z,942.68
2023-03-22T12:34:35.969Z,941.91
2023-03-22T12:35:35.919Z,941.93
2023-03-22T12:36:35.915Z,941.09
2023-03-22T12:37:36.040Z,941.64
2023-03-22T12:38:36.039Z,941.60
2023-03-22T12:39:36.028Z,941.61
2023-03-22T12:40:36.518Z,943.72
2023-03-22T12:41:36.060Z,943.80
2023-03-22T12:42:40.599Z,941.82
2023-03-22T12:43:35.989Z,941.86
2023-03-22T12:44:36.030Z,941.68
2023-03-22T12:45:36.148Z,940.92
2023-03-22T12:46:36.184Z,942.24
2023-03-22T12:47:36.117Z,941.99
2023-03-22T12:48:36.154Z,942.10
2023-03-22T12:49:36.145Z,942.06
2023-03-22T12:50:36.952Z,941.89
2023-03-22T12:51:36.194Z,941.82
2023-03-22T12:52:44.712Z,941.47
2023-03-22T12:53:36.217Z,942.23
2023-03-22T12:54:36.106Z,942.16
2023-03-22T12:55:36.459Z,941.98
2023-03-22T12:56:36.101Z,942.16
2023-03-22T12:57:36.099Z,942.22
2023-03-22T12:58:36.062Z,943.43
2023-03-22T12:59:36.168Z,942.72
2023-03-22T13:00:36.228Z,943.72
2023-03-22T13:01:36.225Z,942.43
2023-03-22T13:02:36.218Z,943.16
2023-03-22T13:03:36.146Z,943.44
2023-03-22T13:04:36.251Z,943.33
2023-03-22T13:05:36.773Z,943.30
2023-03-22T13:06:36.179Z,942.18
2023-03-22T13:07:36.055Z,943.11
2023-03-22T13:08:36.056Z,943.02
2023-03-22T13:09:36.170Z,943.08
2023-03-22T13:10:36.085Z,943.42
2023-03-22T13:11:36.071Z,942.90
2023-03-22T13:12:36.045Z,943.48
2023-03-22T13:13:36.087Z,943.65
2023-03-22T13:14:36.157Z,943.52
2023-03-22T13:15:41.802Z,943.55
2023-03-22T13:16:39.313Z,943.46
2023-03-22T13:17:36.183Z,944.76
2023-03-22T13:18:36.377Z,943.49
2023-03-22T13:19:36.227Z,943.44
2023-03-22T13:20:37.682Z,943.38
2023-03-22T13:21:38.706Z,943.77
2023-03-22T13:22:36.414Z,943.45
2023-03-22T13:23:36.633Z,942.29
2023-03-22T13:24:36.259Z,941.76
2023-03-22T13:25:36.665Z,942.68
2023-03-22T13:26:39.670Z,942.61
2023-03-22T13:27:38.671Z,942.20
2023-03-22T13:28:36.349Z,942.69
2023-03-22T13:29:36.439Z,942.66
2023-03-22T13:30:36.385Z,941.96
2023-03-22T13:31:36.394Z,942.96
2023-03-22T13:32:36.362Z,942.22
2023-03-22T13:33:36.484Z,942.41
2023-03-22T13:34:36.461Z,941.83
2023-03-22T13:35:40.046Z,942.23
2023-03-22T13:36:36.477Z,941.79
2023-03-22T13:37:38.282Z,942.34
2023-03-22T13:38:40.492Z,942.30
2023-03-22T13:39:36.722Z,942.43
2023-03-22T13:40:36.491Z,941.92
2023-03-22T13:41:36.536Z,942.34
2023-03-22T13:42:36.568Z,942.17
2023-03-22T13:43:36.552Z,942.01
2023-03-22T13:44:36.565Z,943.20
2023-03-22T13:45:37.034Z,942.10
2023-03-22T13:46:36.486Z,941.95
2023-03-22T13:47:36.640Z,942.21
2023-03-22T13:48:36.602Z,942.52
2023-03-22T13:49:36.559Z,942.18
2023-03-22T13:50:36.548Z,942.51
2023-03-22T13:51:36.521Z,942.77
2023-03-22T13:52:36.595Z,943.40
2023-03-22T13:53:36.605Z,943.14
2023-03-22T13:54:36.524Z,942.24
2023-03-22T13:55:36.596Z,942.05
2023-03-22T13:56:36.494Z,943.06
2023-03-22T13:57:36.502Z,942.88
2023-03-22T13:58:36.689Z,942.58
2023-03-22T13:59:36.488Z,942.98
2023-03-22T14:00:36.645Z,943.00
2023-03-22T14:01:36.747Z,944.02
2023-03-22T14:02:36.689Z,943.89
2023-03-22T14:03:36.630Z,943.86
2023-03-22T14:04:36.537Z,943.77
2023-03-22T14:05:36.811Z,942.91
2023-03-22T14:06:36.484Z,942.97
2023-03-22T14:07:36.673Z,942.71
2023-03-22T14:08:36.526Z,943.06
2023-03-22T14:09:36.516Z,943.77
2023-03-22T14:10:37.015Z,943.23
2023-03-22T14:11:36.627Z,944.18
2023-03-22T14:12:36.623Z,944.26
2023-03-22T14:13:36.594Z,943.62
2023-03-22T14:14:36.595Z,943.43
2023-03-22T14:15:36.981Z,943.64
2023-03-22T14:16:36.524Z,944.71
2023-03-22T14:17:36.573Z,944.47
2023-03-22T14:18:36.581Z,944.33
2023-03-22T14:19:36.557Z,943.65
2023-03-22T14:20:37.087Z,944.19
2023-03-22T14:21:36.647Z,944.48
2023-03-22T14:52:36.856Z,943.44
2023-03-22T14:53:36.791Z,943.20
2023-03-22T14:54:36.804Z,943.60
2023-03-22T14:55:37.082Z,943.91
2023-03-22T14:56:36.825Z,943.99
2023-03-22T14:57:37.085Z,944.04
2023-03-22T14:58:36.796Z,943.23
2023-03-22T15:00:36.858Z,944.05
2023-03-22T15:01:37.043Z,943.66
2023-03-22T15:02:36.821Z,944.13
2023-03-22T15:03:37.062Z,944.78
2023-03-22T15:04:36.950Z,944.01
2023-03-22T15:05:37.443Z,944.48
2023-03-22T15:06:36.780Z,944.27
2023-03-22T15:07:36.808Z,944.61
2023-03-22T15:08:36.908Z,944.19
2023-03-22T15:09:36.942Z,944.44
2023-03-22T15:10:36.880Z,943.80
2023-03-22T15:11:36.866Z,943.95
2023-03-22T15:12:36.891Z,943.83
2023-03-22T15:13:36.975Z,943.52
2023-03-22T15:14:36.884Z,943.60
2023-03-22T15:15:37.066Z,943.67
2023-03-22T15:16:36.960Z,943.61
2023-03-22T15:17:37.520Z,943.76
2023-03-22T15:18:36.915Z,944.11
2023-03-22T15:19:36.893Z,944.04
2023-03-22T15:20:37.109Z,944.05
2023-03-22T15:21:36.901Z,943.97
2023-03-22T15:22:36.996Z,944.14
2023-03-22T15:23:37.336Z,944.44
2023-03-22T15:24:36.924Z,943.87
2023-03-22T15:25:36.989Z,943.97
2023-03-22T15:26:36.935Z,944.37
2023-03-22T15:27:36.850Z,943.95
2023-03-22T15:28:36.965Z,944.21
2023-03-22T15:29:36.849Z,944.24
2023-03-22T15:30:36.959Z,944.25
2023-03-22T15:31:36.976Z,943.44
2023-03-22T15:32:38.128Z,943.32
2023-03-22T15:33:36.973Z,943.77
2023-03-22T15:34:36.945Z,943.77
2023-03-22T15:35:38.330Z,944.53
2023-03-22T15:36:36.991Z,943.52
2023-03-22T15:37:37.340Z,944.06
2023-03-22T15:38:43.261Z,943.81
2023-03-22T15:39:38.978Z,943.92
2023-03-22T15:40:37.231Z,944.60
2023-03-22T15:41:38.521Z,944.59
2023-03-22T15:42:37.027Z,944.21
2023-03-22T15:43:37.735Z,944.13
2023-03-22T15:44:37.358Z,944.43
2023-03-22T15:45:37.394Z,944.49
2023-03-22T15:46:37.522Z,944.11
2023-03-22T15:47:37.675Z,944.52
2023-03-22T15:48:38.673Z,943.86
2023-03-22T15:49:37.507Z,944.75
2023-03-22T15:50:37.258Z,944.24
2023-03-22T15:51:37.241Z,943.45
2023-03-22T15:52:37.394Z,943.69
2023-03-22T15:53:38.645Z,943.95
2023-03-22T15:54:39.238Z,943.91
2023-03-22T15:55:37.480Z,943.77
2023-03-22T15:56:40.423Z,943.94
2023-03-22T15:57:37.601Z,944.22
2023-03-22T15:58:37.447Z,944.51
2023-03-22T15:59:40.412Z,944.85
2023-03-22T16:00:38.472Z,944.48
2023-03-22T16:01:37.416Z,945.47
2023-03-22T16:02:37.569Z,944.70
2023-03-22T16:03:38.684Z,944.73
2023-03-22T16:04:38.466Z,944.81
2023-03-22T16:05:37.582Z,945.06
2023-03-22T16:06:37.403Z,944.29
2023-03-22T16:21:46.498Z,945.42
2023-03-22T16:22:46.073Z,945.52
2023-03-22T16:23:45.901Z,945.77
2023-03-22T16:24:46.054Z,945.58
2023-03-22T16:25:46.872Z,944.84
2023-03-22T16:26:46.059Z,945.86
2023-03-22T16:27:49.058Z,945.50
2023-03-22T16:28:48.948Z,945.23
2023-03-22T16:29:48.725Z,945.61
2023-03-22T16:30:45.984Z,945.79
2023-03-22T16:31:51.055Z,945.82
2023-03-22T16:32:45.863Z,946.19
2023-03-22T16:33:45.841Z,945.41
2023-03-22T16:34:45.874Z,945.79
2023-03-22T16:35:48.399Z,945.84
2023-03-22T16:36:45.911Z,945.80
2023-03-22T16:37:48.211Z,945.69
2023-03-22T16:38:45.852Z,945.46
2023-03-22T16:39:45.936Z,945.34
2023-03-22T16:40:45.884Z,945.84
2023-03-22T16:41:45.948Z,945.59
2023-03-22T16:42:48.712Z,945.16
2023-03-22T16:43:45.928Z,945.43
2023-03-22T16:44:56.295Z,945.29
2023-03-22T16:45:46.390Z,945.80
2023-03-22T16:46:45.957Z,945.48
2023-03-22T16:47:46.327Z,946.15
2023-03-22T16:48:46.028Z,946.05
2023-03-22T16:49:45.945Z,946.06
2023-03-22T16:50:46.153Z,945.95
2023-03-22T16:55:38.055Z,946.30
2023-03-22T16:55:59.446Z,946.27
2023-03-22T16:56:41.054Z,946.33
2023-03-22T16:57:44.316Z,946.87
2023-03-22T16:58:50.408Z,946.10
2023-03-22T17:02:39.854Z,946.21
2023-03-22T17:03:36.934Z,945.99
2023-03-22T17:05:10.703Z,946.14
2023-03-22T17:07:27.537Z,946.30
2023-03-22T17:08:04.767Z,946.12
2023-03-22T17:09:00.943Z,946.19
2023-03-22T17:10:09.384Z,946.11
2023-03-22T17:11:03.979Z,946.15
2023-03-22T17:11:55.174Z,946.15
2023-03-22T17:13:16.837Z,946.23
2023-03-22T17:14:04.515Z,946.13
2023-03-22T17:14:55.352Z,946.29
2023-03-22T17:15:58.834Z,946.32
2023-03-22T17:17:01.456Z,946.39
2023-03-22T17:17:55.413Z,946.33
2023-03-22T17:18:55.260Z,946.51
2023-03-22T17:19:59.402Z,946.56
2023-03-22T17:21:24.844Z,946.61
2023-03-22T17:22:01.426Z,946.51
2023-03-22T17:23:06.158Z,946.71
2023-03-22T17:23:55.368Z,946.97
2023-03-22T17:24:55.594Z,946.90
2023-03-22T17:25:56.194Z,947.14
2023-03-22T17:27:02.153Z,947.12
2023-03-22T17:27:55.471Z,947.23
2023-03-22T17:29:01.173Z,947.03
2023-03-22T17:30:27.844Z,947.15
2023-03-22T17:31:04.651Z,947.27
2023-03-22T17:32:39.194Z,947.08
2023-03-22T17:35:07.904Z,947.32
2023-03-22T17:36:40.360Z,947.41
2023-03-22T17:37:23.317Z,947.44
2023-03-22T17:38:14.086Z,947.57
2023-03-22T17:39:23.189Z,947.73
2023-03-22T17:40:32.545Z,947.67
2023-03-22T17:41:36.176Z,947.87
2023-03-22T17:42:04.212Z,947.74
2023-03-22T17:43:03.863Z,948.14
2023-03-22T17:44:03.923Z,947.97
2023-03-22T17:45:06.808Z,947.92
2023-03-22T17:46:49.645Z,948.00
2023-03-22T17:47:35.292Z,947.96
2023-03-22T17:48:04.022Z,948.15
2023-03-22T17:49:03.958Z,948.08
2023-03-22T17:50:04.299Z,948.20
2023-03-22T17:51:03.799Z,948.20
2023-03-22T17:52:04.092Z,948.26
2023-03-22T17:53:17.536Z,948.38
2023-03-22T17:54:48.973Z,948.41
2023-03-22T17:55:17.966Z,948.37
2023-03-22T17:56:43.136Z,948.37
2023-03-22T17:57:36.328Z,948.28
2023-03-22T17:58:24.093Z,948.22
2023-03-22T17:59:03.972Z,948.29
2023-03-22T18:00:07.258Z,948.43
2023-03-22T18:01:04.055Z,948.24
2023-03-22T18:02:04.085Z,948.35
2023-03-22T18:03:04.213Z,948.47
2023-03-22T18:04:05.679Z,948.42
2023-03-22T18:05:06.874Z,948.54
2023-03-22T18:06:03.972Z,948.64
2023-03-22T18:07:03.956Z,948.51
2023-03-22T18:08:22.214Z,948.41
2023-03-22T18:09:06.389Z,948.57
2023-03-22T18:10:04.736Z,948.56
2023-03-22T18:11:06.129Z,948.67
2023-03-22T18:12:04.030Z,948.72
2023-03-22T18:13:11.582Z,948.87
2023-03-22T18:14:21.126Z,948.90
2023-03-22T18:15:07.625Z,948.88
2023-03-22T18:16:05.285Z,948.96
2023-03-22T18:17:06.385Z,948.87
2023-03-22T18:18:11.712Z,949.12
2023-03-22T18:19:03.943Z,949.23
2023-03-22T18:20:14.850Z,949.20
2023-03-22T18:22:05.167Z,949.14
2023-03-22T18:23:04.228Z,949.10
2023-03-22T18:24:04.140Z,948.74
2023-03-22T18:25:04.706Z,948.95
2023-03-22T18:26:05.121Z,949.07
2023-03-22T18:27:10.958Z,949.08
2023-03-22T18:28:04.146Z,949.44
2023-03-22T18:29:04.249Z,949.75
2023-03-22T18:30:05.073Z,949.59
2023-03-22T18:31:04.360Z,949.53
2023-03-22T18:32:15.678Z,949.53
2023-03-22T18:33:06.092Z,949.53
2023-03-22T18:34:04.160Z,949.41
2023-03-22T18:35:04.615Z,949.39
2023-03-22T18:36:04.351Z,949.39
2023-03-22T18:37:04.389Z,949.30
2023-03-22T18:38:04.457Z,949.22
2023-03-22T18:39:36.669Z,949.16
2023-03-22T18:41:34.553Z,948.93
2023-03-22T18:42:16.624Z,949.00
2023-03-22T18:43:04.403Z,949.24
2023-03-22T18:44:04.330Z,949.68
2023-03-22T18:45:04.594Z,949.35
2023-03-22T18:46:13.537Z,949.19
2023-03-22T18:47:05.026Z,949.23
2023-03-22T18:48:04.436Z,949.25
2023-03-22T18:49:04.403Z,949.38
2023-03-22T18:50:04.513Z,949.38
2023-03-22T18:51:10.854Z,949.47
2023-03-22T18:54:12.399Z,949.67
2023-03-22T18:54:26.086Z,949.62
2023-03-22T18:55:21.648Z,949.66
2023-03-22T18:56:06.850Z,949.73
2023-03-22T18:57:04.360Z,949.88
2023-03-22T18:58:04.358Z,949.98
2023-03-22T18:59:04.352Z,950.21
2023-03-22T19:00:04.414Z,950.20
2023-03-22T19:01:04.514Z,950.33
2023-03-22T19:02:11.278Z,950.39
2023-03-22T19:03:04.439Z,950.48
2023-03-22T19:04:04.443Z,950.33
2023-03-22T19:05:04.420Z,950.34
2023-03-22T19:06:04.419Z,950.39
2023-03-22T19:07:04.546Z,950.57
2023-03-22T19:08:19.821Z,950.23
2023-03-22T19:09:04.442Z,950.16
2023-03-22T19:10:04.438Z,950.28
2023-03-22T19:11:04.417Z,950.34
2023-03-22T19:12:04.410Z,950.28
2023-03-22T19:13:04.505Z,950.26
2023-03-22T19:15:32.106Z,950.50
2023-03-22T19:16:04.444Z,950.55
2023-03-22T19:17:04.500Z,950.44
2023-03-22T19:18:04.468Z,950.38
2023-03-22T19:19:04.534Z,950.48
2023-03-22T19:20:04.710Z,950.50
2023-03-22T19:21:11.770Z,950.40
2023-03-22T19:22:04.476Z,950.34
2023-03-22T19:23:04.557Z,950.39
2023-03-22T19:24:04.416Z,950.48
2023-03-22T19:25:04.512Z,950.52
2023-03-22T19:26:04.495Z,950.55
2023-03-22T19:27:16.227Z,950.52
2023-03-22T19:28:06.671Z,950.80
2023-03-22T19:29:04.649Z,951.06
2023-03-22T19:30:05.561Z,951.16
2023-03-22T19:31:04.658Z,951.27
2023-03-22T19:32:04.706Z,951.52
2023-03-22T19:33:27.703Z,951.46
2023-03-22T19:34:06.482Z,951.58
2023-03-22T19:35:05.227Z,951.53
2023-03-22T19:36:04.774Z,951.56
2023-03-22T19:37:08.324Z,951.66
2023-03-22T19:38:04.684Z,951.81
2023-03-22T19:39:10.268Z,951.91
2023-03-22T19:41:03.062Z,951.93
2023-03-22T19:41:40.572Z,951.89
2023-03-22T19:42:06.757Z,951.96
2023-03-22T19:43:05.699Z,951.90
2023-03-22T19:44:06.064Z,951.80
2023-03-22T19:45:06.667Z,951.91
2023-03-22T19:46:04.729Z,951.93
2023-03-22T19:47:04.678Z,951.94
2023-03-22T19:48:04.921Z,952.00
2023-03-22T19:49:04.758Z,952.03
2023-03-22T19:50:04.917Z,951.97
2023-03-22T19:51:04.744Z,951.92
2023-03-22T19:52:05.713Z,951.89
2023-03-22T19:53:40.070Z,951.89
2023-03-22T19:54:27.973Z,951.96
2023-03-22T19:55:05.050Z,952.16
2023-03-22T19:56:04.959Z,952.08
2023-03-22T19:57:05.010Z,952.14
2023-03-22T19:58:04.914Z,952.23
2023-03-22T19:59:11.057Z,952.15
2023-03-22T20:00:38.581Z,952.18
2023-03-22T20:01:07.404Z,952.14
2023-03-22T20:02:07.411Z,952.13
2023-03-22T20:03:04.942Z,952.09
2023-03-22T20:04:04.899Z,952.12
2023-03-22T20:05:14.794Z,952.01
2023-03-22T20:06:05.066Z,952.08
2023-03-22T20:07:04.946Z,952.05
2023-03-22T20:08:08.306Z,952.03
2023-03-22T20:09:05.462Z,951.99
2023-03-22T20:10:08.068Z,951.98
2023-03-22T20:11:06.731Z,952.11
2023-03-22T20:12:05.009Z,952.09
2023-03-22T20:13:04.990Z,952.18
2023-03-22T20:14:04.948Z,952.14
2023-03-22T20:15:04.941Z,952.18
2023-03-22T20:16:05.676Z,952.20
2023-03-22T20:17:15.225Z,952.17
2023-03-22T20:18:04.963Z,952.12
2023-03-22T20:19:05.832Z,952.14
2023-03-22T20:20:05.621Z,952.11
2023-03-22T20:21:07.451Z,952.20
2023-03-22T20:22:04.987Z,952.13
2023-03-22T20:23:05.064Z,952.18
2023-03-22T20:24:05.059Z,952.19
2023-03-22T20:25:07.200Z,952.10
2023-03-22T20:26:09.729Z,952.05
2023-03-22T20:27:05.021Z,952.09
2023-03-22T20:28:05.148Z,952.14
2023-03-22T20:29:06.616Z,952.18
2023-03-22T20:30:05.277Z,952.16
2023-03-22T20:31:04.840Z,952.14
2023-03-22T20:32:04.994Z,952.17
2023-03-22T20:33:05.032Z,952.14
2023-03-22T20:34:04.934Z,952.22
2023-03-22T20:35:04.863Z,952.14
2023-03-22T20:36:04.969Z,952.20
2023-03-22T20:37:04.838Z,952.24
2023-03-22T20:38:05.696Z,952.22
2023-03-22T20:39:04.901Z,952.14
2023-03-22T20:40:05.367Z,952.18
2023-03-22T20:41:10.215Z,952.04
2023-03-22T20:42:16.860Z,952.10
2023-03-22T20:43:05.055Z,952.16
2023-03-22T20:44:05.607Z,952.20
2023-03-22T20:45:05.277Z,952.22
2023-03-22T20:46:05.240Z,952.15
2023-03-22T20:47:05.086Z,952.19
2023-03-22T20:48:05.024Z,952.15
2023-03-22T20:49:10.272Z,952.22
2023-03-22T20:50:05.274Z,952.22
2023-03-22T20:51:05.476Z,952.21
2023-03-22T20:52:05.120Z,952.23
2023-03-22T20:53:05.388Z,952.30
2023-03-22T20:54:05.036Z,952.16
2023-03-22T20:55:05.001Z,952.26
2023-03-22T20:56:08.485Z,952.33
2023-03-22T20:57:05.185Z,952.38
2023-03-22T20:58:05.154Z,952.31
2023-03-22T20:59:05.150Z,952.31
2023-03-22T21:00:06.832Z,952.31
2023-03-22T21:01:05.311Z,952.28
2023-03-22T21:02:05.160Z,952.35
2023-03-22T21:03:05.153Z,952.31